createdAt,value
2023-03-22T00:03:21.449Z,34.80
2023-03-22T00:08:26.197Z,34.70
2023-03-22T00:13:29.314Z,34.90
2023-03-22T00:18:32.853Z,34.90
2023-03-22T00:23:37.366Z,34.80
2023-03-22T00:28:40.791Z,35.20
2023-03-22T00:33:43.893Z,35.10
2023-03-22T00:38:48.355Z,35.20
2023-03-22T00:43:52.842Z,35.40
2023-03-22T00:48:55.928Z,35.50
2023-03-22T00:54:00.455Z,35.50
2023-03-22T00:59:03.555Z,36.00
2023-03-22T01:04:07.418Z,35.80
2023-03-22T01:09:14.950Z,36.10
2023-03-22T01:14:19.540Z,36.50
2023-03-22T01:19:22.618Z,36.20
2023-03-22T01:24:27.121Z,36.40
2023-03-22T01:29:31.264Z,36.70
2023-03-22T01:34:34.399Z,36.50
2023-03-22T01:39:38.941Z,36.60
2023-03-22T01:44:44.707Z,36.70
2023-03-22T01:49:48.015Z,36.90
2023-03-22T01:54:54.882Z,36.70
2023-03-22T01:59:58.330Z,37.50
2023-03-22T02:05:04.219Z,36.80
2023-03-22T02:10:12.830Z,36.90
2023-03-22T02:15:24.684Z,37.60
2023-03-22T02:21:02.479Z,37.70
2023-03-22T02:26:41.582Z,38.10
2023-03-22T02:32:17.766Z,37.80
2023-03-22T02:37:53.416Z,38.10
2023-03-22T02:43:06.464Z,38.00
2023-03-22T02:48:14.716Z,37.90
2023-03-22T02:53:21.602Z,37.40
2023-03-22T02:58:29.711Z,37.50
2023-03-22T03:03:37.680Z,37.70
2023-03-22T03:08:41.806Z,37.40
2023-03-22T03:13:48.783Z,37.30
2023-03-22T03:18:59.521Z,37.70
2023-03-22T03:24:15.539Z,37.80
2023-03-22T03:29:26.549Z,38.00
2023-03-22T03:34:35.052Z,37.80
2023-03-22T03:39:44.248Z,37.60
2023-03-22T03:44:49.024Z,37.50
2023-03-22T03:49:52.249Z,37.10
2023-03-22T03:54:55.653Z,36.70
2023-03-22T04:00:00.183Z,36.70
2023-03-22T04:05:03.716Z,36.90
2023-03-22T04:10:09.422Z,36.40
2023-03-22T04:15:14.097Z,36.50
2023-03-22T04:20:17.340Z,36.60
2023-03-22T04:25:22.844Z,36.40
2023-03-22T04:30:27.579Z,36.20
2023-03-22T04:35:30.662Z,36.30
2023-03-22T04:40:36.564Z,36.10
2023-03-22T04:45:42.168Z,36.50
2023-03-22T04:50:45.645Z,37.00
2023-03-22T04:55:48.892Z,36.70
2023-03-22T05:00:54.250Z,36.70
2023-03-22T05:05:58.935Z,36.90
2023-03-22T05:11:09.187Z,36.60
2023-03-22T05:16:13.772Z,37.10
2023-03-22T05:21:22.085Z,36.90
2023-03-22T05:26:26.484Z,36.90
2023-03-22T05:31:34.644Z,36.80
2023-03-22T05:36:37.887Z,36.90
2023-03-22T05:41:41.451Z,36.70
2023-03-22T05:46:45.978Z,36.80
2023-03-22T05:51:49.199Z,37.20
2023-03-22T05:56:55.631Z,37.20
2023-03-22T06:02:00.265Z,37.20
2023-03-22T06:07:03.419Z,37.60
2023-03-22T06:12:07.086Z,37.20
2023-03-22T06:17:12.196Z,37.30
2023-03-22T06:22:16.011Z,37.70
2023-03-22T06:27:19.436Z,38.10
2023-03-22T06:32:24.766Z,38.80
2023-03-22T06:37:27.978Z,39.00
2023-03-22T06:42:34.324Z,38.60
2023-03-22T06:47:39.041Z,38.60
2023-03-22T06:52:42.287Z,39.30
2023-03-22T06:57:45.455Z,39.40
2023-03-22T07:02:52.578Z,39.50
2023-03-22T07:07:55.947Z,40.10
2023-03-22T07:12:59.322Z,39.80
2023-03-22T07:18:03.994Z,40.30
2023-03-22T07:23:07.100Z,40.50
2023-03-22T07:28:11.222Z,40.30
2023-03-22T07:33:15.969Z,40.30
2023-03-22T07:38:19.268Z,40.50
2023-03-22T07:43:22.636Z,40.20
2023-03-22T07:48:28.909Z,40.20
2023-03-22T07:53:32.071Z,40.40
2023-03-22T07:58:35.383Z,39.90
2023-03-22T08:03:40.257Z,40.10
2023-03-22T08:08:43.632Z,40.30
2023-03-22T08:13:46.791Z,40.00
2023-03-22T08:18:51.256Z,39.80
2023-03-22T08:23:54.744Z,39.80
2023-03-22T08:28:58.424Z,39.60
2023-03-22T08:34:02.975Z,39.30
2023-03-22T08:39:06.688Z,38.80
2023-03-22T08:44:10.020Z,38.80
2023-03-22T08:49:15.105Z,38.50
2023-03-22T08:54:18.334Z,38.40
2023-03-22T08:59:21.496Z,38.40
2023-03-22T09:04:26.332Z,37.90
2023-03-22T09:09:29.476Z,37.40
2023-03-22T09:14:32.586Z,37.30
2023-03-22T09:19:40.065Z,37.10
2023-03-22T09:24:43.236Z,36.20
2023-03-22T09:29:46.371Z,36.80
2023-03-22T09:34:51.018Z,36.40
2023-03-22T09:39:54.129Z,34.90
2023-03-22T09:44:58.672Z,35.30
2023-03-22T09:50:09.633Z,35.30
2023-03-22T09:55:20.704Z,34.40
2023-03-22T10:00:32.623Z,33.70
2023-03-22T10:05:44.669Z,34.00
2023-03-22T10:10:48.015Z,32.70
2023-03-22T10:15:53.453Z,33.80
2023-03-22T10:21:02.393Z,32.60
2023-03-22T10:26:07.649Z,31.30
2023-03-22T10:31:17.514Z,32.10
2023-03-22T10:36:24.938Z,31.00
2023-03-22T10:41:29.718Z,30.70
2023-03-22T10:46:36.849Z,31.20
2023-03-22T10:51:47.463Z,30.70
2023-03-22T10:56:50.591Z,29.80
2023-03-22T11:01:53.970Z,30.90
2023-03-22T11:06:58.545Z,30.30
2023-03-22T11:12:02.914Z,29.50
2023-03-22T11:17:12.673Z,30.00
2023-03-22T11:22:26.311Z,28.90
2023-03-22T11:27:31.323Z,27.90
2023-03-22T11:32:39.383Z,29.40
2023-03-22T11:37:45.436Z,29.10
2023-03-22T11:42:50.584Z,28.60
2023-03-22T11:47:54.866Z,29.00
2023-03-22T11:53:02.928Z,28.80
2023-03-22T11:58:07.284Z,28.00
2023-03-22T12:03:16.372Z,28.30
2023-03-22T12:08:27.293Z,28.00
2023-03-22T12:13:38.997Z,27.70
2023-03-22T12:18:50.440Z,27.10
2023-03-22T12:23:59.970Z,26.20
2023-03-22T12:29:05.788Z,27.80
2023-03-22T12:34:13.629Z,27.40
2023-03-22T12:39:24.455Z,27.50
2023-03-22T12:44:32.237Z,26.20
2023-03-22T12:49:40.600Z,26.70
2023-03-22T12:54:45.623Z,26.60
2023-03-22T12:59:52.181Z,26.20
2023-03-22T13:04:57.268Z,26.20
2023-03-22T13:10:22.584Z,27.20
2023-03-22T13:15:41.900Z,26.20
2023-03-22T13:21:16.562Z,26.20
2023-03-22T13:26:21.784Z,26.30
2023-03-22T13:31:38.081Z,26.30
2023-03-22T13:36:41.466Z,26.30
2023-03-22T13:41:50.003Z,27.10
2023-03-22T13:46:54.498Z,26.50
2023-03-22T13:52:01.941Z,26.50
2023-03-22T13:57:18.430Z,25.10
2023-03-22T14:02:29.203Z,24.60
2023-03-22T14:07:36.627Z,24.30
2023-03-22T14:12:50.642Z,25.50
2023-03-22T14:17:58.174Z,24.60
